sensor_id;sensor_type;location;lat;lon;timestamp;temperature;humidity
65864;SHT30;52639;51.180;20.460;2022-12-29T00:03:55;2.26;87.66
65864;SHT30;52639;51.180;20.460;2022-12-29T00:08:01;2.14;88.37
65864;SHT30;52639;51.180;20.460;2022-12-29T00:12:09;2.08;89.00
65864;SHT30;52639;51.180;20.460;2022-12-29T00:16:19;2.12;88.77
65864;SHT30;52639;51.180;20.460;2022-12-29T00:20:21;2.07;88.23
65864;SHT30;52639;51.180;20.460;2022-12-29T00:24:44;1.98;88.49
65864;SHT30;52639;51.180;20.460;2022-12-29T00:29:04;1.88;89.09
65864;SHT30;52639;51.180;20.460;2022-12-29T00:33:29;1.75;89.35
65864;SHT30;52639;51.180;20.460;2022-12-29T00:37:50;1.75;89.81
65864;SHT30;52639;51.180;20.460;2022-12-29T00:42:11;1.67;89.83
65864;SHT30;52639;51.180;20.460;2022-12-29T00:46:35;1.63;88.60
65864;SHT30;52639;51.180;20.460;2022-12-29T00:50:44;1.71;88.28
65864;SHT30;52639;51.180;20.460;2022-12-29T00:54:48;1.75;88.44
65864;SHT30;52639;51.180;20.460;2022-12-29T00:58:50;1.84;88.73
65864;SHT30;52639;51.180;20.460;2022-12-29T01:02:54;1.90;89.01
65864;SHT30;52639;51.180;20.460;2022-12-29T01:06:58;1.90;87.77
65864;SHT30;52639;51.180;20.460;2022-12-29T01:11:05;1.91;87.16
65864;SHT30;52639;51.180;20.460;2022-12-29T01:15:08;2.00;86.85
65864;SHT30;52639;51.180;20.460;2022-12-29T01:19:14;2.04;86.50
65864;SHT30;52639;51.180;20.460;2022-12-29T01:23:20;1.98;88.10
65864;SHT30;52639;51.180;20.460;2022-12-29T01:27:24;2.05;86.05
65864;SHT30;52639;51.180;20.460;2022-12-29T01:31:27;1.97;87.03
65864;SHT30;52639;51.180;20.460;2022-12-29T01:35:31;2.02;86.26
65864;SHT30;52639;51.180;20.460;2022-12-29T01:39:36;2.05;86.66
65864;SHT30;52639;51.180;20.460;2022-12-29T01:43:42;2.05;87.01
65864;SHT30;52639;51.180;20.460;2022-12-29T01:47:47;1.91;87.24
65864;SHT30;52639;51.180;20.460;2022-12-29T01:51:57;1.94;87.40
65864;SHT30;52639;51.180;20.460;2022-12-29T01:56:05;2.01;87.68
65864;SHT30;52639;51.180;20.460;2022-12-29T02:00:13;1.95;88.53
65864;SHT30;52639;51.180;20.460;2022-12-29T02:04:22;2.17;87.50
65864;SHT30;52639;51.180;20.460;2022-12-29T02:08:32;2.38;85.78
65864;SHT30;52639;51.180;20.460;2022-12-29T02:12:37;2.38;87.47
65864;SHT30;52639;51.180;20.460;2022-12-29T02:16:56;2.41;87.74
65864;SHT30;52639;51.180;20.460;2022-12-29T02:30:48;2.52;86.39
65864;SHT30;52639;51.180;20.460;2022-12-29T02:35:01;2.59;85.63
65864;SHT30;52639;51.180;20.460;2022-12-29T02:39:12;2.58;87.47
65864;SHT30;52639;51.180;20.460;2022-12-29T02:43:24;2.65;87.69
65864;SHT30;52639;51.180;20.460;2022-12-29T02:47:35;2.73;85.91
65864;SHT30;52639;51.180;20.460;2022-12-29T02:52:00;2.76;85.93
65864;SHT30;52639;51.180;20.460;2022-12-29T02:56:04;2.76;87.15
65864;SHT30;52639;51.180;20.460;2022-12-29T03:00:14;2.82;87.01
65864;SHT30;52639;51.180;20.460;2022-12-29T03:04:27;2.82;86.98
65864;SHT30;52639;51.180;20.460;2022-12-29T03:08:37;2.85;85.81
65864;SHT30;52639;51.180;20.460;2022-12-29T03:12:52;2.90;86.17
65864;SHT30;52639;51.180;20.460;2022-12-29T03:17:20;2.92;85.32
65864;SHT30;52639;51.180;20.460;2022-12-29T03:21:34;2.85;86.17
65864;SHT30;52639;51.180;20.460;2022-12-29T03:25:58;2.79;87.15
65864;SHT30;52639;51.180;20.460;2022-12-29T03:30:05;2.77;85.19
65864;SHT30;52639;51.180;20.460;2022-12-29T03:34:11;2.77;85.46
65864;SHT30;52639;51.180;20.460;2022-12-29T03:38:19;2.92;86.14
65864;SHT30;52639;51.180;20.460;2022-12-29T03:42:27;2.92;84.35
65864;SHT30;52639;51.180;20.460;2022-12-29T03:46:32;2.96;83.22
65864;SHT30;52639;51.180;20.460;2022-12-29T03:50:34;3.00;84.54
65864;SHT30;52639;51.180;20.460;2022-12-29T03:54:39;2.97;84.04
65864;SHT30;52639;51.180;20.460;2022-12-29T03:58:42;3.04;82.70
65864;SHT30;52639;51.180;20.460;2022-12-29T04:02:47;3.03;82.03
65864;SHT30;52639;51.180;20.460;2022-12-29T04:06:51;3.01;82.02
65864;SHT30;52639;51.180;20.460;2022-12-29T04:10:56;3.01;82.62
65864;SHT30;52639;51.180;20.460;2022-12-29T04:15:00;3.00;82.20
65864;SHT30;52639;51.180;20.460;2022-12-29T04:19:06;2.97;82.13
65864;SHT30;52639;51.180;20.460;2022-12-29T04:23:10;2.95;80.78
65864;SHT30;52639;51.180;20.460;2022-12-29T04:27:27;2.89;83.39
65864;SHT30;52639;51.180;20.460;2022-12-29T04:31:34;2.80;81.82
65864;SHT30;52639;51.180;20.460;2022-12-29T04:35:38;2.89;80.13
65864;SHT30;52639;51.180;20.460;2022-12-29T04:39:41;2.90;80.50
65864;SHT30;52639;51.180;20.460;2022-12-29T04:43:47;2.76;83.12
65864;SHT30;52639;51.180;20.460;2022-12-29T04:47:49;2.73;82.36
65864;SHT30;52639;51.180;20.460;2022-12-29T04:51:53;2.68;82.60
65864;SHT30;52639;51.180;20.460;2022-12-29T04:55:56;2.58;82.36
65864;SHT30;52639;51.180;20.460;2022-12-29T05:00:03;2.55;83.32
65864;SHT30;52639;51.180;20.460;2022-12-29T05:04:05;2.56;81.84
65864;SHT30;52639;51.180;20.460;2022-12-29T05:08:09;2.50;82.75
65864;SHT30;52639;51.180;20.460;2022-12-29T05:12:11;2.59;82.30
65864;SHT30;52639;51.180;20.460;2022-12-29T05:16:17;2.59;82.65
65864;SHT30;52639;51.180;20.460;2022-12-29T05:20:20;2.65;82.44
65864;SHT30;52639;51.180;20.460;2022-12-29T05:24:24;2.76;80.88
65864;SHT30;52639;51.180;20.460;2022-12-29T05:28:26;2.83;80.90
65864;SHT30;52639;51.180;20.460;2022-12-29T05:32:33;2.86;82.45
65864;SHT30;52639;51.180;20.460;2022-12-29T05:36:36;2.86;81.80
65864;SHT30;52639;51.180;20.460;2022-12-29T05:40:40;2.97;82.59
65864;SHT30;52639;51.180;20.460;2022-12-29T05:44:45;2.93;81.24
65864;SHT30;52639;51.180;20.460;2022-12-29T05:48:55;2.97;83.68
65864;SHT30;52639;51.180;20.460;2022-12-29T05:53:13;3.00;81.77
65864;SHT30;52639;51.180;20.460;2022-12-29T05:57:20;3.00;82.15
65864;SHT30;52639;51.180;20.460;2022-12-29T06:01:23;2.93;82.51
65864;SHT30;52639;51.180;20.460;2022-12-29T06:05:28;2.99;83.67
65864;SHT30;52639;51.180;20.460;2022-12-29T06:09:31;2.87;81.61
65864;SHT30;52639;51.180;20.460;2022-12-29T06:13:34;2.82;81.78
65864;SHT30;52639;51.180;20.460;2022-12-29T06:17:37;2.83;82.52
65864;SHT30;52639;51.180;20.460;2022-12-29T06:21:45;2.72;83.43
65864;SHT30;52639;51.180;20.460;2022-12-29T06:25:51;2.77;81.56
65864;SHT30;52639;51.180;20.460;2022-12-29T06:29:57;2.80;83.52
65864;SHT30;52639;51.180;20.460;2022-12-29T06:34:03;2.87;83.55
65864;SHT30;52639;51.180;20.460;2022-12-29T06:38:12;2.92;82.98
65864;SHT30;52639;51.180;20.460;2022-12-29T06:42:16;3.00;82.67
65864;SHT30;52639;51.180;20.460;2022-12-29T06:46:18;2.97;83.29
65864;SHT30;52639;51.180;20.460;2022-12-29T06:50:31;3.01;80.85
65864;SHT30;52639;51.180;20.460;2022-12-29T06:54:41;3.04;81.64
65864;SHT30;52639;51.180;20.460;2022-12-29T06:58:44;2.93;83.25
65864;SHT30;52639;51.180;20.460;2022-12-29T07:02:48;2.93;82.52
65864;SHT30;52639;51.180;20.460;2022-12-29T07:06:51;2.79;82.32
65864;SHT30;52639;51.180;20.460;2022-12-29T07:10:56;2.85;83.98
65864;SHT30;52639;51.180;20.460;2022-12-29T07:15:00;2.76;82.69
65864;SHT30;52639;51.180;20.460;2022-12-29T07:19:04;2.85;83.05
65864;SHT30;52639;51.180;20.460;2022-12-29T07:23:09;2.73;80.10
65864;SHT30;52639;51.180;20.460;2022-12-29T07:27:20;2.87;82.26
65864;SHT30;52639;51.180;20.460;2022-12-29T07:31:24;2.96;81.88
65864;SHT30;52639;51.180;20.460;2022-12-29T07:35:27;3.03;81.28
65864;SHT30;52639;51.180;20.460;2022-12-29T07:39:31;3.04;80.10
65864;SHT30;52639;51.180;20.460;2022-12-29T07:43:38;3.14;80.68
65864;SHT30;52639;51.180;20.460;2022-12-29T07:47:40;3.26;82.43
65864;SHT30;52639;51.180;20.460;2022-12-29T07:51:44;3.28;82.11
65864;SHT30;52639;51.180;20.460;2022-12-29T07:55:46;3.34;81.41
65864;SHT30;52639;51.180;20.460;2022-12-29T08:00:13;3.34;81.25
65864;SHT30;52639;51.180;20.460;2022-12-29T08:04:16;3.53;81.28
65864;SHT30;52639;51.180;20.460;2022-12-29T08:08:39;3.63;82.11
65864;SHT30;52639;51.180;20.460;2022-12-29T08:12:42;3.67;82.54
65864;SHT30;52639;51.180;20.460;2022-12-29T08:16:47;3.79;82.23
65864;SHT30;52639;51.180;20.460;2022-12-29T08:20:51;4.01;79.47
65864;SHT30;52639;51.180;20.460;2022-12-29T08:25:01;4.19;81.36
65864;SHT30;52639;51.180;20.460;2022-12-29T08:29:05;4.35;77.51
65864;SHT30;52639;51.180;20.460;2022-12-29T08:33:14;4.53;79.12
65864;SHT30;52639;51.180;20.460;2022-12-29T08:37:20;4.67;79.09
65864;SHT30;52639;51.180;20.460;2022-12-29T08:42:15;5.03;77.77
65864;SHT30;52639;51.180;20.460;2022-12-29T08:46:51;5.51;78.01
65864;SHT30;52639;51.180;20.460;2022-12-29T08:51:02;5.82;74.12
65864;SHT30;52639;51.180;20.460;2022-12-29T08:55:10;6.20;77.73
65864;SHT30;52639;51.180;20.460;2022-12-29T08:59:36;6.37;77.45
65864;SHT30;52639;51.180;20.460;2022-12-29T09:03:53;6.20;80.05
65864;SHT30;52639;51.180;20.460;2022-12-29T09:09:07;5.92;79.06
65864;SHT30;52639;51.180;20.460;2022-12-29T09:13:34;5.86;77.23
65864;SHT30;52639;51.180;20.460;2022-12-29T09:17:38;5.98;77.92
65864;SHT30;52639;51.180;20.460;2022-12-29T09:22:08;6.24;76.56
65864;SHT30;52639;51.180;20.460;2022-12-29T09:26:42;6.83;78.18
65864;SHT30;52639;51.180;20.460;2022-12-29T09:30:59;8.52;72.52
65864;SHT30;52639;51.180;20.460;2022-12-29T09:35:03;8.08;74.94
65864;SHT30;52639;51.180;20.460;2022-12-29T09:39:12;8.03;77.73
65864;SHT30;52639;51.180;20.460;2022-12-29T09:47:59;7.55;65.34
65864;SHT30;52639;51.180;20.460;2022-12-29T09:52:10;7.65;69.95
65864;SHT30;52639;51.180;20.460;2022-12-29T09:56:22;7.66;75.61
65864;SHT30;52639;51.180;20.460;2022-12-29T10:00:35;7.72;74.74
65864;SHT30;52639;51.180;20.460;2022-12-29T10:04:40;7.79;75.31
65864;SHT30;52639;51.180;20.460;2022-12-29T10:08:48;7.70;75.60
65864;SHT30;52639;51.180;20.460;2022-12-29T10:13:04;7.56;76.36
65864;SHT30;52639;51.180;20.460;2022-12-29T10:17:24;7.66;76.16
65864;SHT30;52639;51.180;20.460;2022-12-29T10:21:38;7.63;76.89
65864;SHT30;52639;51.180;20.460;2022-12-29T10:25:46;7.77;75.74
65864;SHT30;52639;51.180;20.460;2022-12-29T10:29:53;7.66;74.42
65864;SHT30;52639;51.180;20.460;2022-12-29T10:34:01;7.70;77.67
65864;SHT30;52639;51.180;20.460;2022-12-29T10:38:13;7.70;76.97
65864;SHT30;52639;51.180;20.460;2022-12-29T10:42:24;7.67;74.19
65864;SHT30;52639;51.180;20.460;2022-12-29T10:46:30;7.90;73.51
65864;SHT30;52639;51.180;20.460;2022-12-29T10:50:37;8.23;76.11
65864;SHT30;52639;51.180;20.460;2022-12-29T10:54:47;8.44;71.93
65864;SHT30;52639;51.180;20.460;2022-12-29T10:58:56;8.64;74.58
65864;SHT30;52639;51.180;20.460;2022-12-29T11:03:35;8.78;74.74
65864;SHT30;52639;51.180;20.460;2022-12-29T11:07:47;8.92;73.78
65864;SHT30;52639;51.180;20.460;2022-12-29T11:11:50;8.86;74.08
65864;SHT30;52639;51.180;20.460;2022-12-29T11:15:54;8.84;74.29
65864;SHT30;52639;51.180;20.460;2022-12-29T11:19:56;8.96;75.61
65864;SHT30;52639;51.180;20.460;2022-12-29T11:24:03;8.96;75.81
65864;SHT30;52639;51.180;20.460;2022-12-29T11:28:15;8.99;72.76
65864;SHT30;52639;51.180;20.460;2022-12-29T11:32:23;9.15;76.03
65864;SHT30;52639;51.180;20.460;2022-12-29T11:36:26;9.14;73.51
65864;SHT30;52639;51.180;20.460;2022-12-29T11:40:38;9.04;75.48
65864;SHT30;52639;51.180;20.460;2022-12-29T11:44:44;9.05;72.91
65864;SHT30;52639;51.180;20.460;2022-12-29T11:48:48;9.05;72.95
65864;SHT30;52639;51.180;20.460;2022-12-29T11:52:58;9.20;74.21
65864;SHT30;52639;51.180;20.460;2022-12-29T11:57:14;9.20;75.36
65864;SHT30;52639;51.180;20.460;2022-12-29T12:01:20;9.15;73.33
65864;SHT30;52639;51.180;20.460;2022-12-29T12:05:33;9.15;75.51
65864;SHT30;52639;51.180;20.460;2022-12-29T12:09:45;9.22;74.85
65864;SHT30;52639;51.180;20.460;2022-12-29T12:14:04;9.36;76.22
65864;SHT30;52639;51.180;20.460;2022-12-29T12:18:11;9.43;75.49
65864;SHT30;52639;51.180;20.460;2022-12-29T12:22:25;9.56;73.30
65864;SHT30;52639;51.180;20.460;2022-12-29T12:26:32;9.56;73.07
65864;SHT30;52639;51.180;20.460;2022-12-29T12:30:43;9.36;72.74
65864;SHT30;52639;51.180;20.460;2022-12-29T12:34:48;9.20;73.27
65864;SHT30;52639;51.180;20.460;2022-12-29T12:38:56;9.14;73.88
65864;SHT30;52639;51.180;20.460;2022-12-29T12:43:23;9.27;75.31
65864;SHT30;52639;51.180;20.460;2022-12-29T12:47:50;9.42;74.26
65864;SHT30;52639;51.180;20.460;2022-12-29T12:52:07;9.46;75.67
65864;SHT30;52639;51.180;20.460;2022-12-29T13:01:16;9.27;75.58
65864;SHT30;52639;51.180;20.460;2022-12-29T13:06:23;9.05;74.65
65864;SHT30;52639;51.180;20.460;2022-12-29T13:10:53;8.96;74.50
65864;SHT30;52639;51.180;20.460;2022-12-29T13:15:08;8.99;75.09
65864;SHT30;52639;51.180;20.460;2022-12-29T13:19:33;8.72;74.48
65864;SHT30;52639;51.180;20.460;2022-12-29T13:23:46;8.58;75.93
65864;SHT30;52639;51.180;20.460;2022-12-29T13:28:04;8.54;74.88
65864;SHT30;52639;51.180;20.460;2022-12-29T13:32:21;8.41;76.25
65864;SHT30;52639;51.180;20.460;2022-12-29T13:36:46;8.21;75.36
65864;SHT30;52639;51.180;20.460;2022-12-29T13:41:04;8.16;76.81
65864;SHT30;52639;51.180;20.460;2022-12-29T13:45:15;7.96;75.70
65864;SHT30;52639;51.180;20.460;2022-12-29T13:49:22;7.80;76.30
65864;SHT30;52639;51.180;20.460;2022-12-29T13:53:51;7.93;76.48
65864;SHT30;52639;51.180;20.460;2022-12-29T13:58:20;8.03;75.11
65864;SHT30;52639;51.180;20.460;2022-12-29T14:02:42;8.08;75.84
65864;SHT30;52639;51.180;20.460;2022-12-29T14:07:13;8.04;76.43
65864;SHT30;52639;51.180;20.460;2022-12-29T14:11:39;8.07;76.69
65864;SHT30;52639;51.180;20.460;2022-12-29T14:21:03;7.85;76.24
65864;SHT30;52639;51.180;20.460;2022-12-29T14:25:59;7.63;77.56
65864;SHT30;52639;51.180;20.460;2022-12-29T14:44:55;6.90;79.00
65864;SHT30;52639;51.180;20.460;2022-12-29T14:49:25;7.09;78.42
65864;SHT30;52639;51.180;20.460;2022-12-29T14:53:47;7.28;78.13
65864;SHT30;52639;51.180;20.460;2022-12-29T14:58:25;7.31;78.41
65864;SHT30;52639;51.180;20.460;2022-12-29T15:03:14;7.36;77.98
65864;SHT30;52639;51.180;20.460;2022-12-29T15:07:43;7.49;77.57
65864;SHT30;52639;51.180;20.460;2022-12-29T15:11:51;7.38;78.37
65864;SHT30;52639;51.180;20.460;2022-12-29T15:20:59;7.48;79.00
65864;SHT30;52639;51.180;20.460;2022-12-29T15:30:15;7.33;78.66
65864;SHT30;52639;51.180;20.460;2022-12-29T15:39:43;7.22;79.55
65864;SHT30;52639;51.180;20.460;2022-12-29T15:43:54;7.15;79.65
65864;SHT30;52639;51.180;20.460;2022-12-29T15:48:13;6.95;77.47
65864;SHT30;52639;51.180;20.460;2022-12-29T15:52:44;6.81;80.18
65864;SHT30;52639;51.180;20.460;2022-12-29T15:57:26;6.60;80.38
65864;SHT30;52639;51.180;20.460;2022-12-29T16:01:37;6.63;80.02
65864;SHT30;52639;51.180;20.460;2022-12-29T16:15:47;6.30;81.02
65864;SHT30;52639;51.180;20.460;2022-12-29T16:20:24;6.46;80.99
65864;SHT30;52639;51.180;20.460;2022-12-29T16:24:46;6.74;80.42
65864;SHT30;52639;51.180;20.460;2022-12-29T16:29:12;6.91;79.84
65864;SHT30;52639;51.180;20.460;2022-12-29T16:33:46;6.92;80.15
65864;SHT30;52639;51.180;20.460;2022-12-29T16:38:14;6.88;80.39
65864;SHT30;52639;51.180;20.460;2022-12-29T16:43:25;6.87;80.36
65864;SHT30;52639;51.180;20.460;2022-12-29T16:47:29;7.01;79.77
65864;SHT30;52639;51.180;20.460;2022-12-29T16:51:46;7.09;79.86
65864;SHT30;52639;51.180;20.460;2022-12-29T16:56:09;7.15;79.95
65864;SHT30;52639;51.180;20.460;2022-12-29T17:00:35;7.22;79.64
65864;SHT30;52639;51.180;20.460;2022-12-29T17:04:40;7.23;79.79
65864;SHT30;52639;51.180;20.460;2022-12-29T17:09:16;7.26;78.31
65864;SHT30;52639;51.180;20.460;2022-12-29T17:13:21;7.11;80.07
65864;SHT30;52639;51.180;20.460;2022-12-29T17:17:52;7.19;79.91
65864;SHT30;52639;51.180;20.460;2022-12-29T17:22:13;7.21;80.52
65864;SHT30;52639;51.180;20.460;2022-12-29T17:26:21;7.16;79.29
65864;SHT30;52639;51.180;20.460;2022-12-29T17:30:36;7.18;80.51
65864;SHT30;52639;51.180;20.460;2022-12-29T17:34:41;7.11;80.49
65864;SHT30;52639;51.180;20.460;2022-12-29T17:38:50;7.08;80.15
65864;SHT30;52639;51.180;20.460;2022-12-29T17:42:57;7.08;80.86
65864;SHT30;52639;51.180;20.460;2022-12-29T17:47:04;7.00;80.83
65864;SHT30;52639;51.180;20.460;2022-12-29T17:51:18;7.01;81.12
65864;SHT30;52639;51.180;20.460;2022-12-29T17:55:40;6.91;81.82
65864;SHT30;52639;51.180;20.460;2022-12-29T18:04:25;6.95;81.12
65864;SHT30;52639;51.180;20.460;2022-12-29T18:08:34;6.95;81.32
65864;SHT30;52639;51.180;20.460;2022-12-29T18:12:43;6.91;81.38
65864;SHT30;52639;51.180;20.460;2022-12-29T18:17:00;6.90;81.30
65864;SHT30;52639;51.180;20.460;2022-12-29T18:21:08;6.88;81.14
65864;SHT30;52639;51.180;20.460;2022-12-29T18:25:24;6.92;81.70
65864;SHT30;52639;51.180;20.460;2022-12-29T18:29:34;6.98;81.33
65864;SHT30;52639;51.180;20.460;2022-12-29T18:33:43;7.07;80.58
65864;SHT30;52639;51.180;20.460;2022-12-29T18:37:55;7.09;80.78
65864;SHT30;52639;51.180;20.460;2022-12-29T18:41:59;7.09;80.05
65864;SHT30;52639;51.180;20.460;2022-12-29T18:46:10;6.94;81.13
65864;SHT30;52639;51.180;20.460;2022-12-29T18:50:24;6.90;81.23
65864;SHT30;52639;51.180;20.460;2022-12-29T18:54:31;6.64;81.11
65864;SHT30;52639;51.180;20.460;2022-12-29T18:58:34;6.58;80.63
65864;SHT30;52639;51.180;20.460;2022-12-29T19:02:45;6.46;81.51
65864;SHT30;52639;51.180;20.460;2022-12-29T19:06:50;6.30;81.87
65864;SHT30;52639;51.180;20.460;2022-12-29T19:11:01;6.10;82.40
65864;SHT30;52639;51.180;20.460;2022-12-29T19:15:16;6.03;82.63
65864;SHT30;52639;51.180;20.460;2022-12-29T19:19:30;6.09;82.11
65864;SHT30;52639;51.180;20.460;2022-12-29T19:23:38;6.13;82.38
65864;SHT30;52639;51.180;20.460;2022-12-29T19:27:44;6.22;81.73
65864;SHT30;52639;51.180;20.460;2022-12-29T19:31:52;6.16;82.02
65864;SHT30;52639;51.180;20.460;2022-12-29T19:35:59;6.09;81.81
65864;SHT30;52639;51.180;20.460;2022-12-29T19:40:24;6.06;82.10
65864;SHT30;52639;51.180;20.460;2022-12-29T19:44:41;6.07;82.06
65864;SHT30;52639;51.180;20.460;2022-12-29T19:48:47;6.27;81.68
65864;SHT30;52639;51.180;20.460;2022-12-29T19:52:51;6.36;81.08
65864;SHT30;52639;51.180;20.460;2022-12-29T19:56:57;6.53;80.63
65864;SHT30;52639;51.180;20.460;2022-12-29T20:01:09;6.60;81.15
65864;SHT30;52639;51.180;20.460;2022-12-29T20:05:14;6.66;80.78
65864;SHT30;52639;51.180;20.460;2022-12-29T20:09:25;6.63;80.56
65864;SHT30;52639;51.180;20.460;2022-12-29T20:13:33;6.68;81.29
65864;SHT30;52639;51.180;20.460;2022-12-29T20:17:37;6.77;80.83
65864;SHT30;52639;51.180;20.460;2022-12-29T20:21:42;6.74;80.73
65864;SHT30;52639;51.180;20.460;2022-12-29T20:25:56;6.80;80.85
65864;SHT30;52639;51.180;20.460;2022-12-29T20:30:16;6.77;80.47
65864;SHT30;52639;51.180;20.460;2022-12-29T20:34:26;6.76;80.33
65864;SHT30;52639;51.180;20.460;2022-12-29T20:38:33;6.84;79.46
65864;SHT30;52639;51.180;20.460;2022-12-29T20:42:43;6.87;80.79
65864;SHT30;52639;51.180;20.460;2022-12-29T20:46:49;6.81;79.69
65864;SHT30;52639;51.180;20.460;2022-12-29T20:51:10;6.80;81.11
65864;SHT30;52639;51.180;20.460;2022-12-29T20:55:15;6.76;80.07
65864;SHT30;52639;51.180;20.460;2022-12-29T20:59:17;6.73;80.14
65864;SHT30;52639;51.180;20.460;2022-12-29T21:03:23;6.71;80.88
65864;SHT30;52639;51.180;20.460;2022-12-29T21:07:27;6.70;81.16
65864;SHT30;52639;51.180;20.460;2022-12-29T21:11:30;6.67;80.21
65864;SHT30;52639;51.180;20.460;2022-12-29T21:15:33;6.60;80.46
65864;SHT30;52639;51.180;20.460;2022-12-29T21:19:40;6.50;80.58
65864;SHT30;52639;51.180;20.460;2022-12-29T21:23:43;6.48;81.08
65864;SHT30;52639;51.180;20.460;2022-12-29T21:27:46;6.36;81.19
65864;SHT30;52639;51.180;20.460;2022-12-29T21:31:49;6.36;80.96
65864;SHT30;52639;51.180;20.460;2022-12-29T21:35:54;6.19;82.02
65864;SHT30;52639;51.180;20.460;2022-12-29T21:39:56;6.09;82.14
65864;SHT30;52639;51.180;20.460;2022-12-29T21:44:01;6.16;81.76
65864;SHT30;52639;51.180;20.460;2022-12-29T21:48:21;6.23;81.78
65864;SHT30;52639;51.180;20.460;2022-12-29T21:52:26;6.22;82.17
65864;SHT30;52639;51.180;20.460;2022-12-29T21:56:30;6.14;82.40
65864;SHT30;52639;51.180;20.460;2022-12-29T22:00:53;6.12;82.41
65864;SHT30;52639;51.180;20.460;2022-12-29T22:05:41;6.23;81.62
65864;SHT30;52639;51.180;20.460;2022-12-29T22:10:06;6.22;81.84
65864;SHT30;52639;51.180;20.460;2022-12-29T22:14:25;6.29;79.89
65864;SHT30;52639;51.180;20.460;2022-12-29T22:18:28;6.33;81.19
65864;SHT30;52639;51.180;20.460;2022-12-29T22:22:32;6.37;80.33
65864;SHT30;52639;51.180;20.460;2022-12-29T22:26:40;6.36;80.99
65864;SHT30;52639;51.180;20.460;2022-12-29T22:30:43;6.33;80.74
65864;SHT30;52639;51.180;20.460;2022-12-29T22:34:46;6.30;81.44
65864;SHT30;52639;51.180;20.460;2022-12-29T22:38:49;6.29;80.55
65864;SHT30;52639;51.180;20.460;2022-12-29T22:42:54;6.32;81.30
65864;SHT30;52639;51.180;20.460;2022-12-29T22:46:57;6.34;80.59
65864;SHT30;52639;51.180;20.460;2022-12-29T22:51:01;6.34;81.62
65864;SHT30;52639;51.180;20.460;2022-12-29T22:55:05;6.32;81.91
65864;SHT30;52639;51.180;20.460;2022-12-29T22:59:12;6.22;81.65
65864;SHT30;52639;51.180;20.460;2022-12-29T23:03:15;6.06;81.88
65864;SHT30;52639;51.180;20.460;2022-12-29T23:07:19;5.98;82.50
65864;SHT30;52639;51.180;20.460;2022-12-29T23:11:27;6.01;81.43
65864;SHT30;52639;51.180;20.460;2022-12-29T23:15:32;5.99;81.77
65864;SHT30;52639;51.180;20.460;2022-12-29T23:19:35;5.91;81.52
65864;SHT30;52639;51.180;20.460;2022-12-29T23:23:38;5.72;81.65
65864;SHT30;52639;51.180;20.460;2022-12-29T23:27:57;5.47;82.43
65864;SHT30;52639;51.180;20.460;2022-12-29T23:32:02;5.30;82.62
65864;SHT30;52639;51.180;20.460;2022-12-29T23:36:06;5.07;83.29
65864;SHT30;52639;51.180;20.460;2022-12-29T23:40:10;5.03;83.25
65864;SHT30;52639;51.180;20.460;2022-12-29T23:44:13;4.93;83.56
65864;SHT30;52639;51.180;20.460;2022-12-29T23:48:18;4.79;83.44
65864;SHT30;52639;51.180;20.460;2022-12-29T23:52:21;4.52;83.91
65864;SHT30;52639;51.180;20.460;2022-12-29T23:56:27;4.38;84.42
